sensor_id;sensor_type;location;lat;lon;timestamp;P1;durP1;ratioP1;P2;durP2;ratioP2
9422;SDS011;4750;49.506;10.400;2022-08-19T00:01:48;17.67;;;15.90;;
9422;SDS011;4750;49.506;10.400;2022-08-19T00:04:34;17.87;;;15.97;;
9422;SDS011;4750;49.506;10.400;2022-08-19T00:07:19;18.30;;;16.13;;
9422;SDS011;4750;49.506;10.400;2022-08-19T00:10:07;18.53;;;16.73;;
9422;SDS011;4750;49.506;10.400;2022-08-19T00:12:52;19.07;;;17.07;;
9422;SDS011;4750;49.506;10.400;2022-08-19T00:15:37;19.70;;;17.40;;
9422;SDS011;4750;49.506;10.400;2022-08-19T00:18:21;18.20;;;15.93;;
9422;SDS011;4750;49.506;10.400;2022-08-19T00:21:05;18.07;;;16.17;;
9422;SDS011;4750;49.506;10.400;2022-08-19T00:23:52;17.90;;;16.03;;
9422;SDS011;4750;49.506;10.400;2022-08-19T00:26:37;17.57;;;15.87;;
9422;SDS011;4750;49.506;10.400;2022-08-19T00:29:23;17.93;;;16.03;;
9422;SDS011;4750;49.506;10.400;2022-08-19T00:32:07;19.03;;;17.07;;
9422;SDS011;4750;49.506;10.400;2022-08-19T00:34:52;18.23;;;16.40;;
9422;SDS011;4750;49.506;10.400;2022-08-19T00:37:37;19.17;;;16.97;;
9422;SDS011;4750;49.506;10.400;2022-08-19T00:40:21;18.13;;;16.23;;
9422;SDS011;4750;49.506;10.400;2022-08-19T00:43:10;18.50;;;16.40;;
9422;SDS011;4750;49.506;10.400;2022-08-19T00:45:54;21.50;;;17.80;;
9422;SDS011;4750;49.506;10.400;2022-08-19T00:48:38;18.83;;;17.03;;
9422;SDS011;4750;49.506;10.400;2022-08-19T00:51:22;19.83;;;17.73;;
9422;SDS011;4750;49.506;10.400;2022-08-19T00:54:08;20.87;;;17.97;;
9422;SDS011;4750;49.506;10.400;2022-08-19T00:56:53;20.17;;;17.87;;
9422;SDS011;4750;49.506;10.400;2022-08-19T00:59:39;20.70;;;18.47;;
9422;SDS011;4750;49.506;10.400;2022-08-19T01:02:25;20.20;;;18.03;;
9422;SDS011;4750;49.506;10.400;2022-08-19T01:05:12;21.60;;;18.53;;
9422;SDS011;4750;49.506;10.400;2022-08-19T01:08:05;20.27;;;18.17;;
9422;SDS011;4750;49.506;10.400;2022-08-19T01:10:51;19.93;;;17.83;;
9422;SDS011;4750;49.506;10.400;2022-08-19T01:13:37;20.83;;;18.53;;
9422;SDS011;4750;49.506;10.400;2022-08-19T01:16:22;20.63;;;18.43;;
9422;SDS011;4750;49.506;10.400;2022-08-19T01:19:17;21.37;;;19.10;;
9422;SDS011;4750;49.506;10.400;2022-08-19T01:25:08;21.40;;;18.77;;
9422;SDS011;4750;49.506;10.400;2022-08-19T01:27:51;22.73;;;19.03;;
9422;SDS011;4750;49.506;10.400;2022-08-19T01:30:36;21.27;;;18.70;;
9422;SDS011;4750;49.506;10.400;2022-08-19T01:33:21;23.97;;;19.70;;
9422;SDS011;4750;49.506;10.400;2022-08-19T01:36:12;23.10;;;19.73;;
9422;SDS011;4750;49.506;10.400;2022-08-19T01:39:06;26.20;;;20.03;;
9422;SDS011;4750;49.506;10.400;2022-08-19T01:41:53;22.83;;;19.67;;
9422;SDS011;4750;49.506;10.400;2022-08-19T01:44:40;26.43;;;19.93;;
9422;SDS011;4750;49.506;10.400;2022-08-19T01:47:24;24.00;;;21.03;;
9422;SDS011;4750;49.506;10.400;2022-08-19T01:50:09;21.83;;;19.43;;
9422;SDS011;4750;49.506;10.400;2022-08-19T01:52:54;23.70;;;19.77;;
9422;SDS011;4750;49.506;10.400;2022-08-19T01:55:40;23.07;;;19.47;;
9422;SDS011;4750;49.506;10.400;2022-08-19T01:58:27;22.13;;;18.73;;
9422;SDS011;4750;49.506;10.400;2022-08-19T02:01:16;21.10;;;17.80;;
9422;SDS011;4750;49.506;10.400;2022-08-19T02:04:01;24.67;;;19.17;;
9422;SDS011;4750;49.506;10.400;2022-08-19T02:06:45;22.57;;;18.97;;
9422;SDS011;4750;49.506;10.400;2022-08-19T02:09:30;23.77;;;18.73;;
9422;SDS011;4750;49.506;10.400;2022-08-19T02:12:15;23.67;;;18.50;;
9422;SDS011;4750;49.506;10.400;2022-08-19T02:15:00;21.23;;;18.87;;
9422;SDS011;4750;49.506;10.400;2022-08-19T02:17:46;23.60;;;19.23;;
9422;SDS011;4750;49.506;10.400;2022-08-19T02:20:30;22.10;;;18.10;;
9422;SDS011;4750;49.506;10.400;2022-08-19T02:23:15;21.40;;;19.00;;
9422;SDS011;4750;49.506;10.400;2022-08-19T02:26:00;20.87;;;18.33;;
9422;SDS011;4750;49.506;10.400;2022-08-19T02:28:44;23.57;;;18.57;;
9422;SDS011;4750;49.506;10.400;2022-08-19T02:31:28;20.47;;;18.27;;
9422;SDS011;4750;49.506;10.400;2022-08-19T02:34:13;20.97;;;18.23;;
9422;SDS011;4750;49.506;10.400;2022-08-19T02:36:56;20.57;;;17.63;;
9422;SDS011;4750;49.506;10.400;2022-08-19T02:39:40;22.97;;;19.17;;
9422;SDS011;4750;49.506;10.400;2022-08-19T02:42:25;21.17;;;18.87;;
9422;SDS011;4750;49.506;10.400;2022-08-19T02:45:09;20.50;;;18.30;;
9422;SDS011;4750;49.506;10.400;2022-08-19T02:47:53;22.03;;;17.80;;
9422;SDS011;4750;49.506;10.400;2022-08-19T02:50:39;23.40;;;17.20;;
9422;SDS011;4750;49.506;10.400;2022-08-19T02:53:25;20.57;;;17.80;;
9422;SDS011;4750;49.506;10.400;2022-08-19T02:56:10;19.50;;;17.53;;
9422;SDS011;4750;49.506;10.400;2022-08-19T02:58:54;23.33;;;17.50;;
9422;SDS011;4750;49.506;10.400;2022-08-19T03:01:40;19.50;;;17.47;;
9422;SDS011;4750;49.506;10.400;2022-08-19T03:04:25;23.77;;;18.67;;
9422;SDS011;4750;49.506;10.400;2022-08-19T03:07:09;20.07;;;18.03;;
9422;SDS011;4750;49.506;10.400;2022-08-19T03:09:56;21.57;;;19.27;;
9422;SDS011;4750;49.506;10.400;2022-08-19T03:12:40;21.80;;;18.63;;
9422;SDS011;4750;49.506;10.400;2022-08-19T03:15:24;23.77;;;19.83;;
9422;SDS011;4750;49.506;10.400;2022-08-19T03:18:09;23.70;;;20.07;;
9422;SDS011;4750;49.506;10.400;2022-08-19T03:20:54;22.90;;;20.50;;
9422;SDS011;4750;49.506;10.400;2022-08-19T03:23:38;24.27;;;21.63;;
9422;SDS011;4750;49.506;10.400;2022-08-19T03:26:23;23.20;;;20.17;;
9422;SDS011;4750;49.506;10.400;2022-08-19T03:29:08;21.87;;;19.67;;
9422;SDS011;4750;49.506;10.400;2022-08-19T03:31:54;23.10;;;20.73;;
9422;SDS011;4750;49.506;10.400;2022-08-19T03:34:38;22.33;;;19.70;;
9422;SDS011;4750;49.506;10.400;2022-08-19T03:37:22;23.10;;;20.60;;
9422;SDS011;4750;49.506;10.400;2022-08-19T03:40:06;25.50;;;21.80;;
9422;SDS011;4750;49.506;10.400;2022-08-19T03:42:51;23.73;;;21.27;;
9422;SDS011;4750;49.506;10.400;2022-08-19T03:45:35;24.47;;;20.67;;
9422;SDS011;4750;49.506;10.400;2022-08-19T03:48:19;25.20;;;21.20;;
9422;SDS011;4750;49.506;10.400;2022-08-19T03:51:03;25.17;;;21.57;;
9422;SDS011;4750;49.506;10.400;2022-08-19T03:53:48;23.90;;;20.67;;
9422;SDS011;4750;49.506;10.400;2022-08-19T03:56:34;27.77;;;21.10;;
9422;SDS011;4750;49.506;10.400;2022-08-19T03:59:21;25.23;;;20.60;;
9422;SDS011;4750;49.506;10.400;2022-08-19T04:02:10;21.73;;;19.40;;
9422;SDS011;4750;49.506;10.400;2022-08-19T04:04:55;22.03;;;19.43;;
9422;SDS011;4750;49.506;10.400;2022-08-19T04:07:39;23.53;;;20.40;;
9422;SDS011;4750;49.506;10.400;2022-08-19T04:10:23;21.63;;;19.33;;
9422;SDS011;4750;49.506;10.400;2022-08-19T04:13:08;22.67;;;20.10;;
9422;SDS011;4750;49.506;10.400;2022-08-19T04:15:52;22.43;;;19.37;;
9422;SDS011;4750;49.506;10.400;2022-08-19T04:18:37;24.53;;;20.27;;
9422;SDS011;4750;49.506;10.400;2022-08-19T04:21:23;21.63;;;19.43;;
9422;SDS011;4750;49.506;10.400;2022-08-19T04:24:09;22.20;;;19.77;;
9422;SDS011;4750;49.506;10.400;2022-08-19T04:26:55;23.63;;;19.13;;
9422;SDS011;4750;49.506;10.400;2022-08-19T04:29:39;23.10;;;19.57;;
9422;SDS011;4750;49.506;10.400;2022-08-19T04:32:24;21.43;;;19.03;;
9422;SDS011;4750;49.506;10.400;2022-08-19T04:35:08;21.83;;;19.53;;
9422;SDS011;4750;49.506;10.400;2022-08-19T04:37:53;23.77;;;19.10;;
9422;SDS011;4750;49.506;10.400;2022-08-19T04:40:40;21.70;;;18.87;;
9422;SDS011;4750;49.506;10.400;2022-08-19T04:43:45;22.77;;;19.43;;
9422;SDS011;4750;49.506;10.400;2022-08-19T04:46:32;20.40;;;18.20;;
9422;SDS011;4750;49.506;10.400;2022-08-19T04:49:17;20.60;;;18.40;;
9422;SDS011;4750;49.506;10.400;2022-08-19T04:52:03;21.60;;;18.53;;
9422;SDS011;4750;49.506;10.400;2022-08-19T04:54:47;24.60;;;19.00;;
9422;SDS011;4750;49.506;10.400;2022-08-19T04:57:31;22.30;;;18.93;;
9422;SDS011;4750;49.506;10.400;2022-08-19T05:00:15;19.90;;;17.90;;
9422;SDS011;4750;49.506;10.400;2022-08-19T05:02:59;20.60;;;18.40;;
9422;SDS011;4750;49.506;10.400;2022-08-19T05:05:45;21.60;;;18.33;;
9422;SDS011;4750;49.506;10.400;2022-08-19T05:08:31;22.47;;;18.63;;
9422;SDS011;4750;49.506;10.400;2022-08-19T05:11:17;20.57;;;18.27;;
9422;SDS011;4750;49.506;10.400;2022-08-19T05:14:06;20.53;;;17.83;;
9422;SDS011;4750;49.506;10.400;2022-08-19T05:16:51;20.10;;;17.80;;
9422;SDS011;4750;49.506;10.400;2022-08-19T05:19:35;19.37;;;17.37;;
9422;SDS011;4750;49.506;10.400;2022-08-19T05:22:38;21.00;;;18.43;;
9422;SDS011;4750;49.506;10.400;2022-08-19T05:25:22;20.40;;;18.23;;
9422;SDS011;4750;49.506;10.400;2022-08-19T05:28:08;19.93;;;17.50;;
9422;SDS011;4750;49.506;10.400;2022-08-19T05:30:52;19.47;;;17.10;;
9422;SDS011;4750;49.506;10.400;2022-08-19T05:33:39;19.53;;;17.43;;
9422;SDS011;4750;49.506;10.400;2022-08-19T05:36:26;21.30;;;18.07;;
9422;SDS011;4750;49.506;10.400;2022-08-19T05:39:14;20.47;;;17.73;;
9422;SDS011;4750;49.506;10.400;2022-08-19T05:42:04;21.90;;;17.77;;
9422;SDS011;4750;49.506;10.400;2022-08-19T05:44:51;18.87;;;16.87;;
9422;SDS011;4750;49.506;10.400;2022-08-19T05:47:35;20.17;;;16.80;;
9422;SDS011;4750;49.506;10.400;2022-08-19T05:50:19;19.77;;;17.63;;
9422;SDS011;4750;49.506;10.400;2022-08-19T05:53:04;18.67;;;16.87;;
9422;SDS011;4750;49.506;10.400;2022-08-19T05:55:48;19.17;;;17.17;;
9422;SDS011;4750;49.506;10.400;2022-08-19T05:58:33;18.77;;;16.40;;
9422;SDS011;4750;49.506;10.400;2022-08-19T06:01:17;17.97;;;16.17;;
9422;SDS011;4750;49.506;10.400;2022-08-19T06:04:02;18.30;;;16.30;;
9422;SDS011;4750;49.506;10.400;2022-08-19T06:06:48;21.80;;;16.90;;
9422;SDS011;4750;49.506;10.400;2022-08-19T06:09:34;18.00;;;16.03;;
9422;SDS011;4750;49.506;10.400;2022-08-19T06:12:19;17.77;;;15.87;;
9422;SDS011;4750;49.506;10.400;2022-08-19T06:15:04;20.93;;;16.73;;
9422;SDS011;4750;49.506;10.400;2022-08-19T06:17:53;18.67;;;15.97;;
9422;SDS011;4750;49.506;10.400;2022-08-19T06:20:37;17.97;;;15.63;;
9422;SDS011;4750;49.506;10.400;2022-08-19T06:23:21;17.13;;;15.40;;
9422;SDS011;4750;49.506;10.400;2022-08-19T06:26:05;17.27;;;15.40;;
9422;SDS011;4750;49.506;10.400;2022-08-19T06:28:49;17.93;;;15.53;;
9422;SDS011;4750;49.506;10.400;2022-08-19T06:31:34;17.87;;;15.97;;
9422;SDS011;4750;49.506;10.400;2022-08-19T06:34:20;16.77;;;15.13;;
9422;SDS011;4750;49.506;10.400;2022-08-19T06:37:04;18.90;;;16.67;;
9422;SDS011;4750;49.506;10.400;2022-08-19T06:39:49;17.23;;;15.43;;
9422;SDS011;4750;49.506;10.400;2022-08-19T06:42:34;17.80;;;15.80;;
9422;SDS011;4750;49.506;10.400;2022-08-19T06:45:19;17.27;;;15.40;;
9422;SDS011;4750;49.506;10.400;2022-08-19T06:48:03;18.33;;;15.70;;
9422;SDS011;4750;49.506;10.400;2022-08-19T06:50:47;18.10;;;16.13;;
9422;SDS011;4750;49.506;10.400;2022-08-19T06:53:34;18.60;;;16.60;;
9422;SDS011;4750;49.506;10.400;2022-08-19T06:56:19;17.00;;;15.20;;
9422;SDS011;4750;49.506;10.400;2022-08-19T06:59:09;20.33;;;16.10;;
9422;SDS011;4750;49.506;10.400;2022-08-19T07:01:56;17.83;;;15.77;;
9422;SDS011;4750;49.506;10.400;2022-08-19T07:04:40;20.07;;;15.70;;
9422;SDS011;4750;49.506;10.400;2022-08-19T07:07:24;18.13;;;15.93;;
9422;SDS011;4750;49.506;10.400;2022-08-19T07:10:09;17.53;;;15.73;;
9422;SDS011;4750;49.506;10.400;2022-08-19T07:12:53;19.43;;;15.73;;
9422;SDS011;4750;49.506;10.400;2022-08-19T07:15:37;16.70;;;15.00;;
9422;SDS011;4750;49.506;10.400;2022-08-19T07:18:21;18.17;;;15.53;;
9422;SDS011;4750;49.506;10.400;2022-08-19T07:21:17;20.07;;;15.17;;
9422;SDS011;4750;49.506;10.400;2022-08-19T07:24:06;16.23;;;14.40;;
9422;SDS011;4750;49.506;10.400;2022-08-19T07:26:51;17.37;;;15.00;;
9422;SDS011;4750;49.506;10.400;2022-08-19T07:29:37;15.87;;;14.20;;
9422;SDS011;4750;49.506;10.400;2022-08-19T07:32:21;15.20;;;13.60;;
9422;SDS011;4750;49.506;10.400;2022-08-19T07:35:05;14.67;;;13.27;;
9422;SDS011;4750;49.506;10.400;2022-08-19T07:37:50;15.23;;;13.53;;
9422;SDS011;4750;49.506;10.400;2022-08-19T07:40:36;15.83;;;14.17;;
9422;SDS011;4750;49.506;10.400;2022-08-19T07:43:20;15.53;;;13.87;;
9422;SDS011;4750;49.506;10.400;2022-08-19T07:46:09;16.93;;;13.40;;
9422;SDS011;4750;49.506;10.400;2022-08-19T07:48:55;18.63;;;14.30;;
9422;SDS011;4750;49.506;10.400;2022-08-19T07:51:39;16.87;;;13.00;;
9422;SDS011;4750;49.506;10.400;2022-08-19T07:54:23;14.13;;;12.63;;
9422;SDS011;4750;49.506;10.400;2022-08-19T07:57:09;14.20;;;12.80;;
9422;SDS011;4750;49.506;10.400;2022-08-19T07:59:53;14.83;;;13.33;;
9422;SDS011;4750;49.506;10.400;2022-08-19T08:02:38;14.60;;;13.20;;
9422;SDS011;4750;49.506;10.400;2022-08-19T08:05:23;14.97;;;13.37;;
9422;SDS011;4750;49.506;10.400;2022-08-19T08:08:46;14.83;;;12.70;;
9422;SDS011;4750;49.506;10.400;2022-08-19T08:12:01;16.87;;;12.47;;
9422;SDS011;4750;49.506;10.400;2022-08-19T08:14:50;14.70;;;12.10;;
9422;SDS011;4750;49.506;10.400;2022-08-19T08:17:36;15.70;;;12.80;;
9422;SDS011;4750;49.506;10.400;2022-08-19T08:20:20;14.90;;;12.27;;
9422;SDS011;4750;49.506;10.400;2022-08-19T08:23:04;16.20;;;12.53;;
9422;SDS011;4750;49.506;10.400;2022-08-19T08:26:08;14.60;;;12.70;;
9422;SDS011;4750;49.506;10.400;2022-08-19T08:28:52;14.70;;;13.17;;
9422;SDS011;4750;49.506;10.400;2022-08-19T08:31:37;14.27;;;12.63;;
9422;SDS011;4750;49.506;10.400;2022-08-19T08:34:21;15.82;;;13.52;;
9422;SDS011;4750;49.506;10.400;2022-08-19T08:37:06;14.07;;;12.67;;
9422;SDS011;4750;49.506;10.400;2022-08-19T08:39:50;14.77;;;13.17;;
9422;SDS011;4750;49.506;10.400;2022-08-19T08:42:35;16.30;;;13.67;;
9422;SDS011;4750;49.506;10.400;2022-08-19T08:45:24;15.10;;;13.50;;
9422;SDS011;4750;49.506;10.400;2022-08-19T08:48:16;15.50;;;14.00;;
9422;SDS011;4750;49.506;10.400;2022-08-19T08:51:07;21.27;;;14.50;;
9422;SDS011;4750;49.506;10.400;2022-08-19T08:53:55;17.53;;;14.53;;
9422;SDS011;4750;49.506;10.400;2022-08-19T08:56:43;18.40;;;14.87;;
9422;SDS011;4750;49.506;10.400;2022-08-19T08:59:30;20.07;;;13.93;;
9422;SDS011;4750;49.506;10.400;2022-08-19T09:02:18;16.10;;;14.13;;
9422;SDS011;4750;49.506;10.400;2022-08-19T09:05:02;15.73;;;14.03;;
9422;SDS011;4750;49.506;10.400;2022-08-19T09:08:00;15.83;;;14.23;;
9422;SDS011;4750;49.506;10.400;2022-08-19T09:10:50;16.95;;;15.20;;
9422;SDS011;4750;49.506;10.400;2022-08-19T09:14:02;16.27;;;14.17;;
9422;SDS011;4750;49.506;10.400;2022-08-19T09:16:50;15.63;;;14.13;;
9422;SDS011;4750;49.506;10.400;2022-08-19T09:19:36;16.40;;;13.53;;
9422;SDS011;4750;49.506;10.400;2022-08-19T09:22:54;22.27;;;13.97;;
9422;SDS011;4750;49.506;10.400;2022-08-19T09:25:38;16.13;;;14.50;;
9422;SDS011;4750;49.506;10.400;2022-08-19T09:28:23;15.70;;;14.17;;
9422;SDS011;4750;49.506;10.400;2022-08-19T09:31:07;17.10;;;13.97;;
9422;SDS011;4750;49.506;10.400;2022-08-19T09:33:52;14.97;;;13.13;;
9422;SDS011;4750;49.506;10.400;2022-08-19T09:36:40;18.40;;;14.37;;
9422;SDS011;4750;49.506;10.400;2022-08-19T09:39:24;16.63;;;13.97;;
9422;SDS011;4750;49.506;10.400;2022-08-19T09:42:08;15.43;;;13.43;;
9422;SDS011;4750;49.506;10.400;2022-08-19T09:44:57;15.23;;;13.63;;
9422;SDS011;4750;49.506;10.400;2022-08-19T09:47:40;15.90;;;13.50;;
9422;SDS011;4750;49.506;10.400;2022-08-19T09:50:24;17.13;;;12.60;;
9422;SDS011;4750;49.506;10.400;2022-08-19T09:53:09;15.17;;;13.50;;
9422;SDS011;4750;49.506;10.400;2022-08-19T09:55:54;13.90;;;12.53;;
9422;SDS011;4750;49.506;10.400;2022-08-19T09:58:38;13.90;;;12.20;;
9422;SDS011;4750;49.506;10.400;2022-08-19T10:01:24;14.57;;;13.07;;
9422;SDS011;4750;49.506;10.400;2022-08-19T10:04:10;14.77;;;12.97;;
9422;SDS011;4750;49.506;10.400;2022-08-19T10:06:55;14.43;;;13.03;;
9422;SDS011;4750;49.506;10.400;2022-08-19T10:09:39;15.00;;;13.50;;
9422;SDS011;4750;49.506;10.400;2022-08-19T10:12:24;15.43;;;13.93;;
9422;SDS011;4750;49.506;10.400;2022-08-19T10:15:08;15.17;;;13.67;;
9422;SDS011;4750;49.506;10.400;2022-08-19T10:17:53;15.40;;;13.80;;
9422;SDS011;4750;49.506;10.400;2022-08-19T10:20:37;15.90;;;14.43;;
9422;SDS011;4750;49.506;10.400;2022-08-19T10:23:21;15.10;;;13.70;;
9422;SDS011;4750;49.506;10.400;2022-08-19T10:26:06;14.10;;;12.30;;
9422;SDS011;4750;49.506;10.400;2022-08-19T10:28:50;14.57;;;13.17;;
9422;SDS011;4750;49.506;10.400;2022-08-19T10:31:35;13.87;;;12.57;;
9422;SDS011;4750;49.506;10.400;2022-08-19T10:34:19;16.70;;;12.53;;
9422;SDS011;4750;49.506;10.400;2022-08-19T10:37:06;13.77;;;12.43;;
9422;SDS011;4750;49.506;10.400;2022-08-19T10:39:50;13.17;;;11.97;;
9422;SDS011;4750;49.506;10.400;2022-08-19T10:42:34;12.10;;;10.80;;
9422;SDS011;4750;49.506;10.400;2022-08-19T10:45:18;13.70;;;12.40;;
9422;SDS011;4750;49.506;10.400;2022-08-19T10:48:02;13.40;;;12.13;;
9422;SDS011;4750;49.506;10.400;2022-08-19T10:50:47;12.57;;;11.30;;
9422;SDS011;4750;49.506;10.400;2022-08-19T10:53:51;12.30;;;11.00;;
9422;SDS011;4750;49.506;10.400;2022-08-19T10:56:35;10.27;;;9.37;;
9422;SDS011;4750;49.506;10.400;2022-08-19T10:59:35;10.60;;;9.40;;
9422;SDS011;4750;49.506;10.400;2022-08-19T11:02:20;11.90;;;10.80;;
9422;SDS011;4750;49.506;10.400;2022-08-19T11:05:04;10.90;;;9.90;;
9422;SDS011;4750;49.506;10.400;2022-08-19T11:07:50;10.17;;;9.30;;
9422;SDS011;4750;49.506;10.400;2022-08-19T11:10:35;10.77;;;9.67;;
9422;SDS011;4750;49.506;10.400;2022-08-19T11:13:19;10.77;;;9.67;;
9422;SDS011;4750;49.506;10.400;2022-08-19T11:16:06;10.90;;;9.83;;
9422;SDS011;4750;49.506;10.400;2022-08-19T11:18:57;11.37;;;10.37;;
9422;SDS011;4750;49.506;10.400;2022-08-19T11:21:44;10.93;;;9.87;;
9422;SDS011;4750;49.506;10.400;2022-08-19T11:24:30;11.57;;;10.43;;
9422;SDS011;4750;49.506;10.400;2022-08-19T11:27:15;11.57;;;10.53;;
9422;SDS011;4750;49.506;10.400;2022-08-19T11:29:59;12.53;;;11.13;;
9422;SDS011;4750;49.506;10.400;2022-08-19T11:32:43;11.60;;;10.50;;
9422;SDS011;4750;49.506;10.400;2022-08-19T11:35:27;11.17;;;10.13;;
9422;SDS011;4750;49.506;10.400;2022-08-19T11:38:11;10.00;;;9.20;;
9422;SDS011;4750;49.506;10.400;2022-08-19T11:40:59;10.83;;;9.53;;
9422;SDS011;4750;49.506;10.400;2022-08-19T11:43:45;9.83;;;8.80;;
9422;SDS011;4750;49.506;10.400;2022-08-19T11:46:29;10.07;;;9.17;;
9422;SDS011;4750;49.506;10.400;2022-08-19T11:49:13;11.70;;;9.33;;
9422;SDS011;4750;49.506;10.400;2022-08-19T11:52:02;11.20;;;9.57;;
9422;SDS011;4750;49.506;10.400;2022-08-19T11:54:46;10.30;;;9.13;;
9422;SDS011;4750;49.506;10.400;2022-08-19T11:57:30;9.40;;;8.50;;
9422;SDS011;4750;49.506;10.400;2022-08-19T12:00:15;9.80;;;8.80;;
9422;SDS011;4750;49.506;10.400;2022-08-19T12:02:59;11.03;;;8.80;;
9422;SDS011;4750;49.506;10.400;2022-08-19T12:05:44;10.43;;;7.87;;
9422;SDS011;4750;49.506;10.400;2022-08-19T12:08:28;10.33;;;8.27;;
9422;SDS011;4750;49.506;10.400;2022-08-19T12:11:12;11.33;;;9.00;;
9422;SDS011;4750;49.506;10.400;2022-08-19T12:13:57;9.67;;;8.67;;
9422;SDS011;4750;49.506;10.400;2022-08-19T12:16:41;10.60;;;9.13;;
9422;SDS011;4750;49.506;10.400;2022-08-19T12:19:28;9.63;;;8.77;;
9422;SDS011;4750;49.506;10.400;2022-08-19T12:22:12;10.57;;;9.50;;
9422;SDS011;4750;49.506;10.400;2022-08-19T12:24:57;10.43;;;9.20;;
9422;SDS011;4750;49.506;10.400;2022-08-19T12:27:41;11.87;;;10.07;;
9422;SDS011;4750;49.506;10.400;2022-08-19T12:30:26;10.77;;;9.43;;
9422;SDS011;4750;49.506;10.400;2022-08-19T12:33:10;11.63;;;10.43;;
9422;SDS011;4750;49.506;10.400;2022-08-19T12:35:55;11.60;;;10.53;;
9422;SDS011;4750;49.506;10.400;2022-08-19T12:38:45;12.30;;;11.10;;
9422;SDS011;4750;49.506;10.400;2022-08-19T12:41:29;13.70;;;12.37;;
9422;SDS011;4750;49.506;10.400;2022-08-19T12:44:13;13.93;;;12.50;;
9422;SDS011;4750;49.506;10.400;2022-08-19T12:46:57;14.47;;;13.17;;
9422;SDS011;4750;49.506;10.400;2022-08-19T12:49:41;13.87;;;12.50;;
9422;SDS011;4750;49.506;10.400;2022-08-19T12:52:25;13.23;;;11.73;;
9422;SDS011;4750;49.506;10.400;2022-08-19T12:55:10;11.90;;;10.70;;
9422;SDS011;4750;49.506;10.400;2022-08-19T12:57:55;11.40;;;10.20;;
9422;SDS011;4750;49.506;10.400;2022-08-19T13:00:39;10.57;;;9.53;;
9422;SDS011;4750;49.506;10.400;2022-08-19T13:03:24;9.77;;;8.47;;
9422;SDS011;4750;49.506;10.400;2022-08-19T13:06:12;8.70;;;7.83;;
9422;SDS011;4750;49.506;10.400;2022-08-19T13:08:57;8.20;;;7.50;;
9422;SDS011;4750;49.506;10.400;2022-08-19T13:11:41;8.97;;;8.17;;
9422;SDS011;4750;49.506;10.400;2022-08-19T13:14:26;7.77;;;7.07;;
9422;SDS011;4750;49.506;10.400;2022-08-19T13:17:10;7.63;;;6.63;;
9422;SDS011;4750;49.506;10.400;2022-08-19T13:19:55;7.43;;;6.60;;
9422;SDS011;4750;49.506;10.400;2022-08-19T13:22:39;6.33;;;5.73;;
9422;SDS011;4750;49.506;10.400;2022-08-19T13:25:22;6.07;;;5.17;;
9422;SDS011;4750;49.506;10.400;2022-08-19T13:28:07;6.13;;;5.50;;
9422;SDS011;4750;49.506;10.400;2022-08-19T13:30:51;7.53;;;5.80;;
9422;SDS011;4750;49.506;10.400;2022-08-19T13:33:54;7.00;;;6.30;;
9422;SDS011;4750;49.506;10.400;2022-08-19T13:36:38;8.17;;;6.67;;
9422;SDS011;4750;49.506;10.400;2022-08-19T13:39:23;11.73;;;6.97;;
9422;SDS011;4750;49.506;10.400;2022-08-19T13:42:08;8.43;;;6.80;;
9422;SDS011;4750;49.506;10.400;2022-08-19T13:44:54;9.60;;;7.60;;
9422;SDS011;4750;49.506;10.400;2022-08-19T13:47:38;8.00;;;7.30;;
9422;SDS011;4750;49.506;10.400;2022-08-19T13:50:29;9.50;;;8.10;;
9422;SDS011;4750;49.506;10.400;2022-08-19T13:53:14;8.43;;;7.33;;
9422;SDS011;4750;49.506;10.400;2022-08-19T13:55:59;9.40;;;8.23;;
9422;SDS011;4750;49.506;10.400;2022-08-19T13:58:43;7.53;;;6.73;;
9422;SDS011;4750;49.506;10.400;2022-08-19T14:01:27;8.00;;;6.97;;
9422;SDS011;4750;49.506;10.400;2022-08-19T14:04:11;7.23;;;6.53;;
9422;SDS011;4750;49.506;10.400;2022-08-19T14:06:55;7.00;;;6.27;;
9422;SDS011;4750;49.506;10.400;2022-08-19T14:09:39;5.97;;;5.37;;
9422;SDS011;4750;49.506;10.400;2022-08-19T14:12:23;6.40;;;5.00;;
9422;SDS011;4750;49.506;10.400;2022-08-19T14:15:08;5.63;;;4.97;;
9422;SDS011;4750;49.506;10.400;2022-08-19T14:17:53;4.97;;;4.30;;
9422;SDS011;4750;49.506;10.400;2022-08-19T14:20:38;5.73;;;4.10;;
9422;SDS011;4750;49.506;10.400;2022-08-19T14:23:22;5.37;;;4.60;;
9422;SDS011;4750;49.506;10.400;2022-08-19T14:26:11;5.13;;;4.70;;
9422;SDS011;4750;49.506;10.400;2022-08-19T14:28:58;5.43;;;4.90;;
9422;SDS011;4750;49.506;10.400;2022-08-19T14:31:42;5.00;;;4.57;;
9422;SDS011;4750;49.506;10.400;2022-08-19T14:34:28;4.87;;;4.37;;
9422;SDS011;4750;49.506;10.400;2022-08-19T14:37:12;4.87;;;4.40;;
9422;SDS011;4750;49.506;10.400;2022-08-19T14:40:00;8.57;;;4.73;;
9422;SDS011;4750;49.506;10.400;2022-08-19T14:42:45;4.57;;;4.17;;
9422;SDS011;4750;49.506;10.400;2022-08-19T14:45:35;5.00;;;4.50;;
9422;SDS011;4750;49.506;10.400;2022-08-19T14:48:21;6.70;;;4.77;;
9422;SDS011;4750;49.506;10.400;2022-08-19T14:51:05;5.37;;;4.87;;
9422;SDS011;4750;49.506;10.400;2022-08-19T14:53:50;5.43;;;4.67;;
9422;SDS011;4750;49.506;10.400;2022-08-19T14:56:34;5.47;;;4.97;;
9422;SDS011;4750;49.506;10.400;2022-08-19T14:59:18;8.80;;;5.70;;
9422;SDS011;4750;49.506;10.400;2022-08-19T15:02:02;7.73;;;5.23;;
9422;SDS011;4750;49.506;10.400;2022-08-19T15:04:46;7.70;;;5.10;;
9422;SDS011;4750;49.506;10.400;2022-08-19T15:07:30;6.37;;;5.40;;
9422;SDS011;4750;49.506;10.400;2022-08-19T15:10:14;7.63;;;5.37;;
9422;SDS011;4750;49.506;10.400;2022-08-19T15:12:59;5.47;;;4.97;;
9422;SDS011;4750;49.506;10.400;2022-08-19T15:15:46;4.83;;;4.23;;
9422;SDS011;4750;49.506;10.400;2022-08-19T15:18:34;3.67;;;3.37;;
9422;SDS011;4750;49.506;10.400;2022-08-19T15:21:19;3.83;;;3.47;;
9422;SDS011;4750;49.506;10.400;2022-08-19T15:24:03;4.97;;;4.03;;
9422;SDS011;4750;49.506;10.400;2022-08-19T15:26:48;4.20;;;3.80;;
9422;SDS011;4750;49.506;10.400;2022-08-19T15:29:32;4.23;;;3.83;;
9422;SDS011;4750;49.506;10.400;2022-08-19T15:32:16;4.47;;;4.07;;
9422;SDS011;4750;49.506;10.400;2022-08-19T15:35:00;4.20;;;3.80;;
9422;SDS011;4750;49.506;10.400;2022-08-19T15:37:50;4.53;;;3.90;;
9422;SDS011;4750;49.506;10.400;2022-08-19T15:40:35;4.90;;;4.40;;
9422;SDS011;4750;49.506;10.400;2022-08-19T15:43:19;5.50;;;4.70;;
9422;SDS011;4750;49.506;10.400;2022-08-19T15:46:06;5.27;;;4.77;;
9422;SDS011;4750;49.506;10.400;2022-08-19T15:48:51;6.57;;;4.40;;
9422;SDS011;4750;49.506;10.400;2022-08-19T15:51:36;5.13;;;4.03;;
9422;SDS011;4750;49.506;10.400;2022-08-19T15:54:21;4.80;;;4.40;;
9422;SDS011;4750;49.506;10.400;2022-08-19T15:57:05;5.47;;;4.70;;
9422;SDS011;4750;49.506;10.400;2022-08-19T16:00:05;5.27;;;4.77;;
9422;SDS011;4750;49.506;10.400;2022-08-19T16:03:10;4.70;;;4.30;;
9422;SDS011;4750;49.506;10.400;2022-08-19T16:06:15;5.77;;;5.03;;
9422;SDS011;4750;49.506;10.400;2022-08-19T16:09:08;7.90;;;6.07;;
9422;SDS011;4750;49.506;10.400;2022-08-19T16:11:52;7.67;;;6.87;;
9422;SDS011;4750;49.506;10.400;2022-08-19T16:14:36;10.73;;;6.93;;
9422;SDS011;4750;49.506;10.400;2022-08-19T16:17:20;7.40;;;6.70;;
9422;SDS011;4750;49.506;10.400;2022-08-19T16:20:05;8.60;;;7.80;;
9422;SDS011;4750;49.506;10.400;2022-08-19T16:23:00;9.07;;;6.90;;
9422;SDS011;4750;49.506;10.400;2022-08-19T16:25:46;8.57;;;7.70;;
9422;SDS011;4750;49.506;10.400;2022-08-19T16:28:30;7.90;;;6.77;;
9422;SDS011;4750;49.506;10.400;2022-08-19T16:31:14;8.17;;;7.33;;
9422;SDS011;4750;49.506;10.400;2022-08-19T16:33:58;8.60;;;7.73;;
9422;SDS011;4750;49.506;10.400;2022-08-19T16:36:43;10.27;;;9.27;;